createdAt,value
2023-01-01T00:02:37.560Z,14.61
2023-01-01T00:05:22.761Z,14.69
2023-01-01T00:08:07.854Z,14.69
2023-01-01T00:10:52.980Z,14.62
2023-01-01T00:13:39.995Z,14.61
2023-01-01T00:16:24.839Z,14.48
2023-01-01T00:19:09.814Z,14.57
2023-01-01T00:21:54.663Z,14.34
2023-01-01T00:24:39.833Z,14.43
2023-01-01T00:27:25.178Z,14.46
2023-01-01T00:30:11.221Z,14.51
2023-01-01T00:32:56.609Z,14.59
2023-01-01T00:35:41.629Z,14.66
2023-01-01T00:38:26.844Z,14.49
2023-01-01T00:41:13.438Z,14.56
2023-01-01T00:43:58.365Z,14.48
2023-01-01T00:46:43.676Z,14.39
2023-01-01T00:49:29.154Z,14.35
2023-01-01T00:52:14.242Z,14.45
2023-01-01T00:54:59.244Z,14.50
2023-01-01T00:57:44.187Z,14.38
2023-01-01T01:00:29.032Z,14.26
2023-01-01T01:03:28.016Z,14.29
2023-01-01T01:06:16.813Z,14.34
2023-01-01T01:09:01.960Z,14.30
2023-01-01T01:11:47.165Z,14.32
2023-01-01T01:14:32.120Z,14.39
2023-01-01T01:17:17.171Z,14.39
2023-01-01T01:20:02.883Z,14.30
2023-01-01T01:22:48.018Z,14.36
2023-01-01T01:25:33.352Z,14.35
2023-01-01T01:28:18.116Z,14.44
2023-01-01T01:31:03.766Z,14.36
2023-01-01T01:33:50.142Z,14.33
2023-01-01T01:36:35.244Z,14.37
2023-01-01T01:39:20.339Z,14.34
2023-01-01T01:42:05.806Z,14.20
2023-01-01T01:44:53.570Z,14.36
2023-01-01T01:47:55.609Z,14.39
2023-01-01T01:50:43.797Z,14.33
2023-01-01T01:53:32.352Z,14.45
2023-01-01T01:56:27.952Z,14.48
2023-01-01T01:59:14.410Z,14.43
2023-01-01T02:02:00.387Z,14.47
2023-01-01T02:04:45.911Z,14.30
2023-01-01T02:07:33.503Z,14.47
2023-01-01T02:10:18.454Z,14.60
2023-01-01T02:13:03.565Z,14.38
2023-01-01T02:16:07.717Z,14.53
2023-01-01T02:19:18.251Z,14.35
2023-01-01T02:22:17.948Z,14.39
2023-01-01T02:25:34.357Z,14.55
2023-01-01T02:28:24.015Z,14.42
2023-01-01T02:31:19.606Z,14.37
2023-01-01T02:34:12.575Z,14.51
2023-01-01T02:37:00.366Z,14.51
2023-01-01T02:39:53.596Z,14.32
2023-01-01T02:42:38.801Z,14.40
2023-01-01T02:45:23.912Z,14.41
2023-01-01T02:48:35.729Z,14.46
2023-01-01T02:51:52.903Z,14.39
2023-01-01T02:54:48.273Z,14.41
2023-01-01T02:57:41.513Z,14.25
2023-01-01T03:00:31.255Z,14.19
2023-01-01T03:03:29.706Z,14.32
2023-01-01T03:06:26.989Z,14.29
2023-01-01T03:09:40.867Z,14.23
2023-01-01T03:12:40.052Z,14.39
2023-01-01T03:15:38.434Z,14.33
2023-01-01T03:18:29.097Z,14.32
2023-01-01T03:24:01.441Z,14.51
2023-01-01T03:26:50.727Z,14.50
2023-01-01T03:29:40.179Z,14.44
2023-01-01T03:32:53.051Z,14.44
2023-01-01T03:35:47.156Z,14.40
2023-01-01T03:38:40.835Z,14.46
2023-01-01T03:41:39.640Z,14.53
2023-01-01T03:44:32.541Z,14.44
2023-01-01T03:47:18.268Z,14.47
2023-01-01T03:50:04.291Z,14.47
2023-01-01T03:52:58.785Z,14.65
2023-01-01T03:55:54.756Z,14.52
2023-01-01T03:58:47.854Z,14.60
2023-01-01T04:01:39.929Z,14.56
2023-01-01T04:04:26.840Z,14.52
2023-01-01T04:07:15.837Z,14.48
2023-01-01T04:10:02.402Z,14.54
2023-01-01T04:12:50.407Z,14.58
2023-01-01T04:15:38.661Z,14.47
2023-01-01T04:18:23.647Z,14.49
2023-01-01T04:21:08.772Z,14.54
2023-01-01T04:23:53.733Z,14.60
2023-01-01T04:26:38.777Z,14.45
2023-01-01T04:29:24.052Z,14.46
2023-01-01T04:32:08.787Z,14.51
2023-01-01T04:34:53.679Z,14.36
2023-01-01T04:37:39.605Z,14.36
2023-01-01T04:40:24.671Z,14.32
2023-01-01T04:43:09.719Z,14.35
2023-01-01T04:45:58.438Z,14.47
2023-01-01T04:48:44.111Z,14.42
2023-01-01T04:51:29.101Z,14.32
2023-01-01T04:54:14.141Z,14.36
2023-01-01T04:56:59.244Z,14.30
2023-01-01T04:59:44.340Z,14.25
2023-01-01T05:02:29.636Z,14.20
2023-01-01T05:05:14.753Z,14.21
2023-01-01T05:07:59.735Z,14.20
2023-01-01T05:10:44.682Z,14.18
2023-01-01T05:13:30.714Z,14.24
2023-01-01T05:16:22.088Z,14.22
2023-01-01T05:19:08.895Z,14.17
2023-01-01T05:21:54.245Z,14.10
2023-01-01T05:24:39.142Z,14.14
2023-01-01T05:27:24.142Z,14.24
2023-01-01T05:30:09.307Z,14.20
2023-01-01T05:32:54.494Z,14.14
2023-01-01T05:35:39.601Z,14.10
2023-01-01T05:38:24.823Z,14.14
2023-01-01T05:41:12.375Z,14.05
2023-01-01T05:43:57.139Z,14.15
2023-01-01T05:46:42.215Z,14.03
2023-01-01T05:49:28.218Z,14.06
2023-01-01T05:52:13.394Z,13.97
2023-01-01T05:54:58.506Z,13.98
2023-01-01T05:57:43.421Z,14.04
2023-01-01T06:00:28.871Z,14.06
2023-01-01T06:03:13.725Z,14.10
2023-01-01T06:06:03.400Z,14.08
2023-01-01T06:08:52.526Z,13.99
2023-01-01T06:11:37.716Z,14.04
2023-01-01T06:14:22.879Z,14.05
2023-01-01T06:17:07.728Z,14.00
2023-01-01T06:19:52.956Z,14.03
2023-01-01T06:22:38.045Z,13.98
2023-01-01T06:25:23.065Z,13.97
2023-01-01T06:28:08.456Z,13.93
2023-01-01T06:30:53.528Z,13.90
2023-01-01T06:33:39.890Z,13.83
2023-01-01T06:36:27.513Z,13.81
2023-01-01T06:39:12.263Z,13.88
2023-01-01T06:41:57.512Z,13.85
2023-01-01T06:44:42.489Z,13.80
2023-01-01T06:47:27.584Z,13.77
2023-01-01T06:50:12.797Z,13.85
2023-01-01T06:52:57.577Z,13.84
2023-01-01T06:55:54.983Z,13.90
2023-01-01T06:58:41.915Z,14.04
2023-01-01T07:01:30.112Z,14.04
2023-01-01T07:04:16.143Z,14.01
2023-01-01T07:07:01.208Z,13.95
2023-01-01T07:09:46.139Z,13.94
2023-01-01T07:12:30.977Z,14.12
2023-01-01T07:15:16.357Z,13.99
2023-01-01T07:18:01.383Z,14.12
2023-01-01T07:20:52.593Z,14.18
2023-01-01T07:23:37.349Z,14.16
2023-01-01T07:26:26.569Z,14.22
2023-01-01T07:29:12.809Z,14.25
2023-01-01T07:31:58.213Z,14.26
2023-01-01T07:34:48.859Z,14.27
2023-01-01T07:37:35.718Z,14.30
2023-01-01T07:40:20.678Z,14.30
2023-01-01T07:43:06.410Z,14.24
2023-01-01T07:45:51.739Z,14.30
2023-01-01T07:48:40.175Z,14.27
2023-01-01T07:51:25.338Z,14.26
2023-01-01T07:54:10.457Z,14.34
2023-01-01T07:56:55.405Z,14.29
2023-01-01T07:59:40.446Z,14.29
2023-01-01T08:02:25.725Z,14.24
2023-01-01T08:05:11.224Z,14.31
2023-01-01T08:07:56.061Z,14.32
2023-01-01T08:10:41.219Z,14.28
2023-01-01T08:13:26.231Z,14.27
2023-01-01T08:16:11.318Z,14.24
2023-01-01T08:18:56.118Z,14.22
2023-01-01T08:21:41.333Z,14.20
2023-01-01T08:24:26.521Z,14.10
2023-01-01T08:27:15.872Z,14.14
2023-01-01T08:30:00.748Z,14.13
2023-01-01T08:32:45.870Z,14.09
2023-01-01T08:35:30.951Z,14.09
2023-01-01T08:38:16.147Z,14.05
2023-01-01T08:41:01.087Z,13.98
2023-01-01T08:43:46.189Z,13.89
2023-01-01T08:46:31.340Z,13.97
2023-01-01T08:49:16.555Z,13.92
2023-01-01T08:52:01.307Z,13.94
2023-01-01T08:54:46.333Z,13.91
2023-01-01T08:57:31.704Z,13.90
2023-01-01T09:00:17.970Z,13.89
2023-01-01T09:03:03.181Z,13.88
2023-01-01T09:05:48.855Z,13.83
2023-01-01T09:08:34.024Z,13.85
2023-01-01T09:11:24.851Z,13.82
2023-01-01T09:14:09.964Z,13.81
2023-01-01T09:16:55.007Z,13.78
2023-01-01T09:19:40.181Z,13.84
2023-01-01T09:22:25.273Z,13.86
2023-01-01T09:25:10.512Z,13.83
2023-01-01T09:28:04.469Z,13.83
2023-01-01T09:30:49.477Z,13.87
2023-01-01T09:33:34.764Z,13.88
2023-01-01T09:36:29.359Z,13.88
2023-01-01T09:39:15.660Z,13.89
2023-01-01T09:42:18.704Z,13.92
2023-01-01T09:45:22.432Z,13.87
2023-01-01T09:48:13.345Z,13.88
2023-01-01T09:51:02.215Z,13.92
2023-01-01T09:54:01.535Z,13.99
2023-01-01T09:56:46.715Z,14.05
2023-01-01T09:59:31.831Z,14.13
2023-01-01T10:02:31.253Z,14.11
2023-01-01T10:05:37.388Z,14.15
2023-01-01T10:08:43.325Z,14.14
2023-01-01T10:11:43.040Z,14.10
2023-01-01T10:14:35.205Z,14.09
2023-01-01T10:17:35.321Z,14.16
2023-01-01T10:20:26.969Z,14.15
2023-01-01T10:23:23.584Z,14.17
2023-01-01T10:26:14.981Z,14.13
2023-01-01T10:29:05.603Z,14.16
2023-01-01T10:31:51.032Z,14.16
2023-01-01T10:34:35.988Z,14.14
2023-01-01T10:37:22.001Z,14.17
2023-01-01T10:40:16.233Z,14.17
2023-01-01T10:43:02.561Z,14.20
2023-01-01T10:45:53.207Z,14.14
2023-01-01T10:48:38.185Z,14.15
2023-01-01T10:51:24.752Z,14.19
2023-01-01T10:54:31.733Z,14.14
2023-01-01T10:57:38.511Z,14.10
2023-01-01T11:00:26.939Z,14.08
2023-01-01T11:03:18.663Z,14.06
2023-01-01T11:06:17.954Z,14.07
2023-01-01T11:09:19.509Z,14.02
2023-01-01T11:12:19.124Z,14.02
2023-01-01T11:15:44.766Z,14.02
2023-01-01T11:18:35.956Z,14.08
2023-01-01T11:21:24.010Z,14.04
2023-01-01T11:24:18.067Z,14.02
2023-01-01T11:27:20.979Z,14.03
2023-01-01T11:30:21.517Z,14.02
2023-01-01T11:33:06.787Z,13.97
2023-01-01T11:35:54.954Z,13.99
2023-01-01T11:38:40.052Z,14.00
2023-01-01T11:41:25.614Z,14.02
2023-01-01T11:44:13.799Z,14.08
2023-01-01T11:46:59.284Z,14.03
2023-01-01T11:49:44.465Z,14.03
2023-01-01T11:52:37.063Z,13.95
2023-01-01T11:55:43.133Z,13.91
2023-01-01T11:58:36.401Z,13.99
2023-01-01T12:01:32.385Z,13.96
2023-01-01T12:04:25.637Z,14.05
2023-01-01T12:07:15.757Z,14.06
2023-01-01T12:10:06.446Z,14.04
2023-01-01T12:13:00.580Z,14.01
2023-01-01T12:16:00.493Z,14.08
2023-01-01T12:18:54.797Z,14.10
2023-01-01T12:21:48.989Z,14.15
2023-01-01T12:24:37.384Z,14.16
2023-01-01T12:27:36.303Z,14.18
2023-01-01T12:30:30.909Z,14.22
2023-01-01T12:33:34.664Z,14.24
2023-01-01T12:36:41.530Z,14.26
2023-01-01T12:39:55.241Z,14.25
2023-01-01T12:42:59.063Z,14.28
2023-01-01T12:46:01.818Z,14.28
2023-01-01T12:48:58.610Z,14.23
2023-01-01T12:52:13.416Z,14.24
2023-01-01T12:55:20.791Z,14.24
2023-01-01T12:58:21.800Z,14.24
2023-01-01T13:01:20.801Z,14.21
2023-01-01T13:04:11.953Z,14.19
2023-01-01T13:07:05.710Z,14.15
2023-01-01T13:09:51.661Z,14.21
2023-01-01T13:12:37.880Z,14.26
2023-01-01T13:15:38.009Z,14.20
2023-01-01T13:18:34.610Z,14.17
2023-01-01T13:21:25.659Z,14.17
2023-01-01T13:24:22.651Z,14.20
2023-01-01T13:27:10.896Z,14.10
2023-01-01T13:29:56.090Z,14.15
2023-01-01T13:33:26.048Z,14.24
2023-01-01T13:36:20.339Z,14.25
2023-01-01T13:39:07.087Z,14.25
2023-01-01T13:41:52.097Z,14.28
2023-01-01T13:44:37.309Z,14.26
2023-01-01T13:47:41.810Z,14.29
2023-01-01T13:50:54.579Z,14.20
2023-01-01T13:54:15.576Z,14.12
2023-01-01T13:57:08.610Z,14.17
2023-01-01T14:00:16.403Z,14.16
2023-01-01T14:03:07.383Z,14.16
2023-01-01T14:05:59.294Z,14.11
2023-01-01T14:08:44.286Z,14.13
2023-01-01T14:11:29.488Z,14.08
2023-01-01T14:14:24.009Z,14.05
2023-01-01T14:17:09.430Z,14.02
2023-01-01T14:19:54.625Z,14.10
2023-01-01T14:22:39.815Z,14.07
2023-01-01T14:25:29.296Z,14.01
2023-01-01T14:28:22.134Z,13.99
2023-01-01T14:31:13.679Z,14.02
2023-01-01T14:33:58.698Z,13.96
2023-01-01T14:36:55.098Z,13.89
2023-01-01T14:39:40.162Z,13.78
2023-01-01T14:42:25.427Z,13.80
2023-01-01T14:45:16.000Z,13.81
2023-01-01T14:48:01.444Z,13.80
2023-01-01T14:50:50.277Z,13.75
2023-01-01T14:53:35.258Z,13.72
2023-01-01T14:56:28.254Z,13.77
2023-01-01T14:59:23.872Z,13.75
2023-01-01T15:02:22.983Z,13.65
2023-01-01T15:05:22.955Z,13.61
2023-01-01T15:08:19.446Z,13.61
2023-01-01T15:11:05.103Z,13.54
2023-01-01T15:13:58.368Z,13.49
2023-01-01T15:16:43.289Z,13.40
2023-01-01T15:19:28.470Z,13.39
2023-01-01T15:22:34.644Z,13.19
2023-01-01T15:25:20.525Z,13.11
2023-01-01T15:28:05.548Z,13.02
2023-01-01T15:30:55.287Z,12.94
2023-01-01T15:33:46.783Z,12.87
2023-01-01T15:36:32.843Z,12.77
2023-01-01T15:39:17.645Z,12.59
2023-01-01T15:42:02.542Z,12.55
2023-01-01T15:44:47.413Z,12.34
2023-01-01T15:47:38.353Z,12.34
2023-01-01T15:50:24.861Z,12.16
2023-01-01T15:53:21.238Z,11.94
2023-01-01T15:56:11.910Z,11.98
2023-01-01T15:59:09.550Z,11.88
2023-01-01T16:02:30.106Z,11.84
2023-01-01T16:05:18.149Z,11.73
2023-01-01T16:08:05.087Z,11.76
2023-01-01T16:10:51.066Z,11.60
2023-01-01T16:13:35.971Z,11.58
2023-01-01T16:16:30.057Z,11.70
2023-01-01T16:19:18.040Z,11.80
2023-01-01T16:22:03.332Z,11.89
2023-01-01T16:24:48.241Z,11.91
2023-01-01T16:27:33.425Z,11.97
2023-01-01T16:30:18.320Z,11.93
2023-01-01T16:33:09.202Z,11.99
2023-01-01T16:35:54.090Z,12.03
2023-01-01T16:38:38.913Z,12.00
2023-01-01T16:41:26.503Z,12.02
2023-01-01T16:44:13.233Z,11.93
2023-01-01T16:46:58.013Z,12.00
2023-01-01T16:49:44.286Z,12.01
2023-01-01T16:52:33.477Z,12.03
2023-01-01T16:55:18.681Z,12.03
2023-01-01T16:58:38.592Z,12.08
2023-01-01T17:01:09.152Z,11.96
2023-01-01T17:03:54.193Z,12.03
2023-01-01T17:06:39.421Z,11.98
2023-01-01T17:09:24.410Z,11.89
2023-01-01T17:12:09.514Z,11.91
2023-01-01T17:14:54.516Z,11.92
2023-01-01T17:17:39.276Z,11.95
2023-01-01T17:20:24.976Z,11.98
2023-01-01T17:23:09.729Z,12.02
2023-01-01T17:25:54.595Z,12.00
2023-01-01T17:28:39.895Z,11.98
2023-01-01T17:31:25.114Z,11.94
2023-01-01T17:34:14.265Z,11.92
2023-01-01T17:37:00.010Z,11.92
2023-01-01T17:39:45.138Z,11.77
2023-01-01T17:42:30.163Z,11.83
2023-01-01T17:45:15.247Z,11.64
2023-01-01T17:48:00.195Z,11.41
2023-01-01T17:50:45.168Z,11.56
2023-01-01T17:53:30.559Z,11.62
2023-01-01T17:56:17.596Z,11.67
2023-01-01T17:59:02.758Z,11.54
2023-01-01T18:01:48.237Z,11.67
2023-01-01T18:04:33.082Z,11.63
2023-01-01T18:07:18.257Z,11.68
2023-01-01T18:10:04.207Z,11.67
2023-01-01T18:12:49.311Z,11.73
2023-01-01T18:15:37.713Z,11.65
2023-01-01T18:18:22.709Z,11.55
2023-01-01T18:21:20.724Z,11.53
2023-01-01T18:24:11.934Z,11.56
2023-01-01T18:26:56.921Z,11.54
2023-01-01T18:29:41.903Z,11.48
2023-01-01T18:32:26.883Z,11.42
2023-01-01T18:35:12.047Z,11.48
2023-01-01T18:37:57.319Z,11.48
2023-01-01T18:40:53.905Z,11.46
2023-01-01T18:43:39.038Z,11.39
2023-01-01T18:46:23.961Z,11.46
2023-01-01T18:49:09.706Z,11.36
2023-01-01T18:51:57.110Z,11.36
2023-01-01T18:54:42.252Z,11.25
2023-01-01T18:57:29.768Z,11.24
2023-01-01T19:00:16.538Z,11.22
2023-01-01T19:03:02.846Z,11.18
2023-01-01T19:05:47.716Z,11.15
2023-01-01T19:08:32.969Z,11.18
2023-01-01T19:11:21.314Z,11.19
2023-01-01T19:14:20.168Z,11.20
2023-01-01T19:17:14.913Z,11.13
2023-01-01T19:20:00.257Z,11.11
2023-01-01T19:22:45.719Z,11.12
2023-01-01T19:25:40.309Z,11.08
2023-01-01T19:28:31.429Z,11.07
2023-01-01T19:31:16.658Z,11.16
2023-01-01T19:34:01.463Z,11.12
2023-01-01T19:36:47.060Z,11.17
2023-01-01T19:39:32.362Z,11.16
2023-01-01T19:42:17.486Z,11.22
2023-01-01T19:45:02.618Z,11.23
2023-01-01T19:47:47.953Z,11.24
2023-01-01T19:50:32.791Z,11.24
2023-01-01T19:53:17.804Z,11.29
2023-01-01T19:56:02.585Z,11.18
2023-01-01T19:58:48.307Z,11.15
2023-01-01T20:01:33.244Z,11.14
2023-01-01T20:04:18.034Z,11.16
2023-01-01T20:07:02.856Z,11.20
2023-01-01T20:09:48.023Z,11.18
2023-01-01T20:12:33.090Z,11.06
2023-01-01T20:15:18.204Z,10.99
2023-01-01T20:18:03.355Z,10.99
2023-01-01T20:21:06.710Z,11.07
2023-01-01T20:23:51.709Z,11.12
2023-01-01T20:26:36.799Z,11.02
2023-01-01T20:29:22.729Z,11.09
2023-01-01T20:32:12.785Z,11.12
2023-01-01T20:34:57.736Z,11.18
2023-01-01T20:37:42.553Z,11.13
2023-01-01T20:40:27.627Z,11.11
2023-01-01T20:43:12.617Z,11.15
2023-01-01T20:45:57.574Z,11.09
2023-01-01T20:48:42.761Z,11.02
2023-01-01T20:51:27.733Z,11.09
2023-01-01T20:54:12.870Z,11.10
2023-01-01T20:56:57.817Z,11.11
2023-01-01T20:59:43.067Z,10.99
2023-01-01T21:02:29.627Z,11.01
2023-01-01T21:05:14.575Z,11.05
2023-01-01T21:07:59.525Z,11.07
2023-01-01T21:10:44.499Z,11.05
2023-01-01T21:13:29.393Z,11.02
2023-01-01T21:16:20.500Z,11.02
2023-01-01T21:19:08.285Z,11.04
2023-01-01T21:21:55.557Z,11.07
2023-01-01T21:24:40.453Z,11.16
2023-01-01T21:27:32.631Z,11.18
2023-01-01T21:30:18.544Z,11.23
2023-01-01T21:33:14.308Z,11.18
2023-01-01T21:36:05.269Z,11.15
2023-01-01T21:38:51.908Z,11.12
2023-01-01T21:41:36.887Z,11.30
2023-01-01T21:44:21.987Z,11.53
2023-01-01T21:47:19.423Z,11.59
2023-01-01T21:50:23.030Z,11.77
2023-01-01T21:53:15.806Z,11.93
2023-01-01T21:56:17.741Z,12.09
2023-01-01T21:59:27.633Z,12.17
2023-01-01T22:02:12.606Z,12.29
2023-01-01T22:04:59.954Z,12.39
2023-01-01T22:08:01.805Z,12.47
2023-01-01T22:10:46.562Z,12.64
2023-01-01T22:13:31.559Z,12.55
2023-01-01T22:16:16.671Z,12.48
2023-01-01T22:19:10.978Z,12.48
2023-01-01T22:21:56.149Z,12.59
2023-01-01T22:24:44.105Z,12.63
2023-01-01T22:27:29.187Z,12.61
2023-01-01T22:30:17.179Z,12.69
2023-01-01T22:33:03.136Z,12.69
2023-01-01T22:35:48.055Z,12.75
2023-01-01T22:38:33.716Z,12.85
2023-01-01T22:41:18.856Z,12.85
2023-01-01T22:44:04.355Z,12.80
2023-01-01T22:46:49.263Z,12.90
2023-01-01T22:49:40.272Z,12.90
2023-01-01T22:52:25.494Z,12.90
2023-01-01T22:55:10.638Z,13.00
2023-01-01T22:57:55.861Z,13.00
2023-01-01T23:00:41.695Z,13.08
2023-01-01T23:03:26.588Z,13.01
2023-01-01T23:06:11.741Z,13.12
2023-01-01T23:08:56.975Z,13.15
2023-01-01T23:11:41.908Z,13.28
2023-01-01T23:14:45.452Z,13.35
2023-01-01T23:17:30.459Z,13.48
2023-01-01T23:20:15.389Z,13.50
2023-01-01T23:23:00.467Z,13.64
2023-01-01T23:25:45.399Z,13.63
2023-01-01T23:28:31.701Z,13.60
2023-01-01T23:31:24.740Z,13.64
2023-01-01T23:34:11.244Z,13.61
2023-01-01T23:36:57.517Z,13.70
2023-01-01T23:39:42.624Z,14.04
2023-01-01T23:42:27.487Z,14.06
2023-01-01T23:45:12.591Z,14.15
2023-01-01T23:47:57.607Z,14.07
2023-01-01T23:50:42.724Z,14.07
2023-01-01T23:53:27.650Z,14.09
2023-01-01T23:56:13.017Z,14.11
2023-01-01T23:58:57.891Z,14.14
